ADDS METAR Data INFO
IDs: Format: Raw Decoded Include TAF

Data at: 0317 UTC 18 Aug 2017

KSAA 180255Z AUTO 23011KT 10SM BKN110 19/02 A3025 RMK AO2
KSAA 180235Z AUTO 22013G24KT 10SM BKN110 18/03 A3025 RMK AO2
KSAA 180215Z AUTO 23018G23KT 10SM SCT110 20/02 A3025 RMK AO2
KSAA 180155Z AUTO 24013G18KT 10SM CLR 19/03 A3024 RMK AO2
KSAA 180135Z AUTO 21009KT 10SM SCT110 20/02 A3023 RMK AO2
KSAA 180115Z AUTO 23012G21KT 10SM SCT110 21/01 A3023 RMK AO2
KSAA 180055Z AUTO 24016G20KT 10SM SCT110 23/01 A3023 RMK AO2
KSAA 180035Z AUTO 25013G22KT 10SM SCT110 23/00 A3023 RMK AO2
KSAA 180015Z AUTO 26017G23KT 10SM SCT110 23/01 A3023 RMK AO2
KSAA 172355Z AUTO 22013G19KT 10SM SCT110 24/01 A3023 RMK AO2
KSAA 172335Z AUTO 25012G18KT 10SM SCT100 SCT120 25/00 A3023 RMK AO2
KSAA 172315Z AUTO 30004G18KT 10SM SCT100 SCT120 23/01 A3023 RMK AO2
KSAA 172255Z AUTO 24011G17KT 10SM SCT100 23/01 A3023 RMK AO2
KSAA 172235Z AUTO 25019G23KT 10SM SCT100 SCT120 23/01 A3024 RMK AO2
KSAA 172215Z AUTO 25009G23KT 10SM SCT090 23/01 A3025 RMK AO2
KSAA 172155Z AUTO 26007KT 10SM SCT090 SCT120 22/03 A3025 RMK AO2
KSAA 172135Z AUTO 29007G14KT 10SM SCT120 23/02 A3025 RMK AO2
KSAA 172115Z AUTO 26014G22KT 10SM SCT120 25/01 A3025 RMK AO2
KSAA 172055Z AUTO 24015G24KT 10SM SCT090 SCT120 24/01 A3025 RMK AO2
KSAA 172035Z AUTO 27012G21KT 10SM SCT090 23/02 A3026 RMK AO2
KSAA 172015Z AUTO 29014G24KT 10SM CLR 24/01 A3027 RMK AO2
KSAA 171955Z AUTO 25013G21KT 10SM SCT120 24/01 A3027 RMK AO2
KSAA 171935Z AUTO 29011G23KT 10SM SCT100 SCT120 24/01 A3027 RMK AO2
KSAA 171915Z AUTO 26015G22KT 10SM SCT090 BKN110 24/01 A3027 RMK AO2
KSAA 171855Z AUTO 29008G14KT 10SM SCT090 BKN110 23/02 A3027 RMK AO2
KSAA 171835Z AUTO 27010G23KT 10SM SCT090 BKN110 21/02 A3028 RMK AO2
KSAA 171815Z AUTO 27007G18KT 10SM SCT085 SCT110 21/03 A3028 RMK AO2
KSAA 171755Z AUTO 28008G19KT 10SM SCT085 SCT110 21/03 A3028 RMK AO2
KSAA 171735Z AUTO 29010G22KT 10SM SCT085 SCT100 23/02 A3028 RMK AO2
KSAA 171715Z AUTO 26016G23KT 10SM CLR 22/02 A3028 RMK AO2
KSAA 171655Z AUTO 27015G21KT 10SM CLR 22/02 A3028 RMK AO2
KSAA 171635Z AUTO 27012G17KT 10SM CLR 22/03 A3029 RMK AO2
KSAA 171615Z AUTO 25004KT 10SM CLR 21/04 A3029 RMK AO2
KSAA 171555Z AUTO 14005KT 10SM CLR 20/04 A3029 RMK AO2
KSAA 171535Z AUTO 14005KT 10SM CLR 18/04 A3029 RMK AO2
KSAA 171515Z AUTO 14007KT 10SM CLR 18/05 A3029 RMK AO2
KSAA 171455Z AUTO 15006KT 10SM CLR 17/05 A3029 RMK AO2
KSAA 171435Z AUTO 14006KT 10SM CLR 15/05 A3029 RMK AO2
KSAA 171415Z AUTO 12007KT 10SM CLR 14/06 A3029 RMK AO2
KSAA 171355Z AUTO 03004KT 10SM CLR 13/06 A3029 RMK AO2
KSAA 171335Z AUTO 14006KT 102V172 10SM CLR 12/05 A3028 RMK AO2
KSAA 171315Z AUTO 19009KT 10SM CLR 11/05 A3028 RMK AO2
KSAA 171255Z AUTO 17012KT 10SM CLR 11/05 A3028 RMK AO2
KSAA 171235Z AUTO 18013KT 10SM CLR 10/05 A3026 RMK AO2
KSAA 171215Z AUTO 19011KT 10SM CLR 10/05 A3026 RMK AO2
KSAA 171155Z AUTO 18014KT 10SM CLR 10/05 A3026 RMK AO2
KSAA 171135Z AUTO 18011G17KT 10SM CLR 11/05 A3026 RMK AO2
KSAA 171115Z AUTO 17008G18KT 10SM CLR 11/05 A3025 RMK AO2
KSAA 171055Z AUTO 16010G16KT 10SM CLR 11/05 A3025 RMK AO2
KSAA 171035Z AUTO 17009G15KT 10SM CLR 11/05 A3025 RMK AO2
KSAA 171015Z AUTO 18012KT 10SM SCT120 11/05 A3025 RMK AO2
KSAA 170955Z AUTO 18013KT 10SM SCT120 11/05 A3024 RMK AO2
KSAA 170935Z AUTO 17013KT 10SM BKN120 11/05 A3025 RMK AO2
KSAA 170915Z AUTO 16011KT 10SM CLR 10/05 A3025 RMK AO2
KSAA 170855Z AUTO 19009KT 10SM CLR 10/06 A3025 RMK AO2
KSAA 170830Z AUTO 18014KT 10SM SCT100 11/05 A3024 RMK AO2
KSAA 170815Z AUTO 17010G14KT 10SM SCT100 11/05 A3024 RMK AO2
KSAA 170755Z AUTO 18010KT 10SM CLR 11/05 A3024 RMK AO2
KSAA 170735Z AUTO 16012G15KT 10SM CLR 11/05 A3025 RMK AO2
KSAA 170715Z AUTO 16007G14KT 10SM SCT100 11/06 A3025 RMK AO2
KSAA 170655Z AUTO 18011KT 10SM CLR 10/06 A3025 RMK AO2
KSAA 170635Z AUTO 19011KT 10SM CLR 11/05 A3025 RMK AO2
KSAA 170615Z AUTO 15007KT 10SM SCT110 11/06 A3025 RMK AO2
KSAA 170555Z AUTO 17007KT 10SM SCT110 11/06 A3025 RMK AO2
KSAA 170535Z AUTO 14009KT 10SM SCT110 12/06 A3025 RMK AO2
KSAA 170515Z AUTO 14008KT 10SM CLR 12/06 A3025 RMK AO2
KSAA 170455Z AUTO 15006KT 10SM CLR 12/06 A3025 RMK AO2
KSAA 170435Z AUTO 16005KT 10SM CLR 11/07 A3025 RMK AO2
KSAA 170415Z AUTO 17004KT 10SM CLR 12/07 A3025 RMK AO2
KSAA 170355Z AUTO 14008KT 10SM CLR 12/07 A3024 RMK AO2
KSAA 170335Z AUTO 18009KT 10SM SCT110 13/07 A3024 RMK AO2
KSAA 170315Z AUTO 13009KT 10SM SCT110 13/08 A3024 RMK AO2
KSAA 170255Z AUTO 17008KT 10SM SCT100 13/08 A3023 RMK AO2
KSAA 170235Z AUTO 00000KT 10SM CLR 15/07 A3023 RMK AO2
KSAA 170215Z AUTO 00000KT 10SM SCT100 16/06 A3022 RMK AO2
KSAA 170155Z AUTO 29003KT 10SM SCT100 17/06 A3022 RMK AO2
KSAA 170135Z AUTO 36005KT 10SM SCT120 18/05 A3022 RMK AO2
KSAA 170115Z AUTO 36006KT 10SM BKN120 18/05 A3022 RMK AO2
KSAA 170055Z AUTO 30006KT 10SM BKN120 17/06 A3022 RMK AO2
KSAA 170035Z AUTO 30006KT 10SM SCT110 19/04 A3022 RMK AO2
KSAA 170015Z AUTO 29008G15KT 10SM BKN110 18/05 A3023 RMK AO2
KSAA 162355Z AUTO 28006KT 10SM SCT085 OVC110 18/06 A3022 RMK AO2
KSAA 162335Z AUTO 29008G17KT 10SM SCT085 BKN110 19/04 A3022 RMK AO2
KSAA 162315Z AUTO 28007KT 10SM SCT085 BKN100 20/02 A3021 RMK AO2
KSAA 162255Z AUTO 28005KT 10SM BKN100 21/02 A3022 RMK AO2
KSAA 162235Z AUTO 32004KT 10SM CLR 20/02 A3021 RMK AO2
KSAA 162215Z AUTO 34007KT 302V012 10SM CLR 21/02 A3022 RMK AO2
KSAA 162155Z AUTO 33007KT 10SM SCT070 SCT090 20/02 A3021 RMK AO2
KSAA 162135Z AUTO 34006KT 10SM SCT070 SCT090 21/03 A3022 RMK AO2
KSAA 162115Z AUTO 30006KT 10SM SCT070 SCT090 20/02 A3022 RMK AO2
KSAA 162055Z AUTO 34007KT 302V012 10SM CLR 19/03 A3023 RMK AO2 LTG DSNT S
KSAA 162035Z AUTO 33008KT 10SM CLR 20/03 A3023 RMK AO2
KSAA 162015Z AUTO 31006KT 10SM CLR 20/05 A3023 RMK AO2
KSAA 161955Z AUTO 31008G17KT 10SM CLR 20/05 A3023 RMK AO2
KSAA 161935Z AUTO 03008KT 292V202 10SM SCT055 SCT070 19/06 A3024 RMK AO2
KSAA 161915Z AUTO 33004G15KT 10SM SCT055 18/04 A3024 RMK AO2
KSAA 161855Z AUTO 31005KT 10SM SCT050 18/04 A3024 RMK AO2
KSAA 161835Z AUTO 00000KT 10SM SCT047 SCT055 18/06 A3025 RMK AO2 LTG DSNT SE
KSAA 161815Z AUTO 35008KT 312V012 10SM SCT037 SCT047 18/07 A3025 RMK AO2 LTG DSNT SE
KSAA 161755Z AUTO 32005KT 10SM SCT035 SCT043 17/08 A3025 RMK AO2
KSAA 161735Z AUTO 33004KT 10SM SCT031 SCT045 17/08 A3026 RMK AO2
KSAA 161715Z AUTO 00000KT 10SM SCT028 16/08 A3025 RMK AO2
KSAA 161655Z AUTO 00000KT 10SM CLR 16/07 A3025 RMK AO2
KSAA 161635Z AUTO 00000KT 10SM CLR 15/07 A3025 RMK AO2
KSAA 161615Z AUTO 00000KT 10SM CLR 14/07 A3025 RMK AO2
KSAA 161555Z AUTO 10006KT 10SM CLR 14/07 A3025 RMK AO2
KSAA 161535Z AUTO 17004KT 10SM CLR 13/08 A3025 RMK AO2